sensor_id;sensor_type;location;lat;lon;timestamp;P1;P2;P0
84282;PMS7003;74440;52.600;21.450;2024-02-15T00:02:23;10;9;6
84282;PMS7003;74440;52.600;21.450;2024-02-15T00:06:33;8;7;5
84282;PMS7003;74440;52.600;21.450;2024-02-15T00:10:35;8;7;6
84282;PMS7003;74440;52.600;21.450;2024-02-15T00:14:37;9;7;5
84282;PMS7003;74440;52.600;21.450;2024-02-15T00:18:39;6;6;4
84282;PMS7003;74440;52.600;21.450;2024-02-15T00:27:05;8;6;5
84282;PMS7003;74440;52.600;21.450;2024-02-15T00:31:06;11;9;6
84282;PMS7003;74440;52.600;21.450;2024-02-15T00:35:08;10;8;6
84282;PMS7003;74440;52.600;21.450;2024-02-15T00:39:10;9;7;5
84282;PMS7003;74440;52.600;21.450;2024-02-15T00:43:18;13;10;7
84282;PMS7003;74440;52.600;21.450;2024-02-15T00:47:36;7;7;5
84282;PMS7003;74440;52.600;21.450;2024-02-15T00:51:38;8;5;4
84282;PMS7003;74440;52.600;21.450;2024-02-15T00:55:40;10;8;6
84282;PMS7003;74440;52.600;21.450;2024-02-15T00:59:41;7;7;6
84282;PMS7003;74440;52.600;21.450;2024-02-15T01:03:43;9;6;5
84282;PMS7003;74440;52.600;21.450;2024-02-15T01:07:44;9;9;6
84282;PMS7003;74440;52.600;21.450;2024-02-15T01:11:45;7;6;5
84282;PMS7003;74440;52.600;21.450;2024-02-15T01:15:48;10;7;6
84282;PMS7003;74440;52.600;21.450;2024-02-15T01:19:49;8;6;4
84282;PMS7003;74440;52.600;21.450;2024-02-15T01:24:06;8;7;5
84282;PMS7003;74440;52.600;21.450;2024-02-15T01:28:07;10;9;7
84282;PMS7003;74440;52.600;21.450;2024-02-15T01:32:08;8;7;4
84282;PMS7003;74440;52.600;21.450;2024-02-15T01:36:13;8;7;6
84282;PMS7003;74440;52.600;21.450;2024-02-15T01:40:16;7;7;4
84282;PMS7003;74440;52.600;21.450;2024-02-15T01:44:18;9;8;6
84282;PMS7003;74440;52.600;21.450;2024-02-15T01:48:21;10;9;6
84282;PMS7003;74440;52.600;21.450;2024-02-15T01:52:23;7;7;5
84282;PMS7003;74440;52.600;21.450;2024-02-15T01:56:25;8;7;6
84282;PMS7003;74440;52.600;21.450;2024-02-15T02:00:36;9;7;4
84282;PMS7003;74440;52.600;21.450;2024-02-15T02:04:40;10;9;6
84282;PMS7003;74440;52.600;21.450;2024-02-15T02:08:42;8;8;6
84282;PMS7003;74440;52.600;21.450;2024-02-15T02:12:44;9;7;5
84282;PMS7003;74440;52.600;21.450;2024-02-15T02:16:45;8;6;5
84282;PMS7003;74440;52.600;21.450;2024-02-15T02:20:47;9;6;5
84282;PMS7003;74440;52.600;21.450;2024-02-15T02:29:01;7;6;5
84282;PMS7003;74440;52.600;21.450;2024-02-15T02:33:05;10;9;6
84282;PMS7003;74440;52.600;21.450;2024-02-15T02:37:09;7;6;4
84282;PMS7003;74440;52.600;21.450;2024-02-15T02:41:11;7;6;4
84282;PMS7003;74440;52.600;21.450;2024-02-15T02:45:13;8;7;5
84282;PMS7003;74440;52.600;21.450;2024-02-15T02:49:15;6;6;4
84282;PMS7003;74440;52.600;21.450;2024-02-15T02:53:16;8;6;4
84282;PMS7003;74440;52.600;21.450;2024-02-15T02:57:17;12;11;7
84282;PMS7003;74440;52.600;21.450;2024-02-15T03:01:21;10;9;6
84282;PMS7003;74440;52.600;21.450;2024-02-15T03:05:26;7;6;5
84282;PMS7003;74440;52.600;21.450;2024-02-15T03:09:29;8;7;5
84282;PMS7003;74440;52.600;21.450;2024-02-15T03:13:34;8;8;6
84282;PMS7003;74440;52.600;21.450;2024-02-15T03:17:37;11;9;7
84282;PMS7003;74440;52.600;21.450;2024-02-15T03:21:39;7;7;4
84282;PMS7003;74440;52.600;21.450;2024-02-15T03:25:47;7;5;4
84282;PMS7003;74440;52.600;21.450;2024-02-15T03:29:50;7;6;4
84282;PMS7003;74440;52.600;21.450;2024-02-15T03:34:06;9;8;6
84282;PMS7003;74440;52.600;21.450;2024-02-15T03:38:07;8;6;5
84282;PMS7003;74440;52.600;21.450;2024-02-15T03:42:08;9;7;5
84282;PMS7003;74440;52.600;21.450;2024-02-15T03:46:11;6;6;5
84282;PMS7003;74440;52.600;21.450;2024-02-15T03:50:14;8;8;6
84282;PMS7003;74440;52.600;21.450;2024-02-15T03:54:16;10;9;6
84282;PMS7003;74440;52.600;21.450;2024-02-15T03:58:17;9;7;3
84282;PMS7003;74440;52.600;21.450;2024-02-15T04:02:19;9;7;6
84282;PMS7003;74440;52.600;21.450;2024-02-15T04:06:20;8;7;4
84282;PMS7003;74440;52.600;21.450;2024-02-15T04:10:35;7;6;5
84282;PMS7003;74440;52.600;21.450;2024-02-15T04:14:36;10;8;6
84282;PMS7003;74440;52.600;21.450;2024-02-15T04:18:41;8;7;5
84282;PMS7003;74440;52.600;21.450;2024-02-15T04:22:45;10;10;7
84282;PMS7003;74440;52.600;21.450;2024-02-15T04:26:50;11;9;6
84282;PMS7003;74440;52.600;21.450;2024-02-15T04:31:06;9;6;4
84282;PMS7003;74440;52.600;21.450;2024-02-15T04:35:13;6;5;4
84282;PMS7003;74440;52.600;21.450;2024-02-15T04:39:15;9;8;6
84282;PMS7003;74440;52.600;21.450;2024-02-15T04:43:24;11;11;8
84282;PMS7003;74440;52.600;21.450;2024-02-15T04:47:26;9;8;6
84282;PMS7003;74440;52.600;21.450;2024-02-15T04:51:38;11;10;6
84282;PMS7003;74440;52.600;21.450;2024-02-15T04:55:44;8;8;6
84282;PMS7003;74440;52.600;21.450;2024-02-15T04:59:46;11;9;5
84282;PMS7003;74440;52.600;21.450;2024-02-15T05:03:50;12;10;6
84282;PMS7003;74440;52.600;21.450;2024-02-15T05:07:51;12;10;6
84282;PMS7003;74440;52.600;21.450;2024-02-15T05:12:09;8;7;6
84282;PMS7003;74440;52.600;21.450;2024-02-15T05:16:11;10;9;7
84282;PMS7003;74440;52.600;21.450;2024-02-15T05:20:13;10;10;7
84282;PMS7003;74440;52.600;21.450;2024-02-15T05:24:15;10;8;6
84282;PMS7003;74440;52.600;21.450;2024-02-15T05:28:17;9;8;6
84282;PMS7003;74440;52.600;21.450;2024-02-15T05:32:21;12;9;6
84282;PMS7003;74440;52.600;21.450;2024-02-15T05:36:22;11;8;5
84282;PMS7003;74440;52.600;21.450;2024-02-15T05:40:26;12;11;8
84282;PMS7003;74440;52.600;21.450;2024-02-15T05:44:27;11;11;8
84282;PMS7003;74440;52.600;21.450;2024-02-15T05:48:39;10;8;7
84282;PMS7003;74440;52.600;21.450;2024-02-15T05:52:40;13;11;8
84282;PMS7003;74440;52.600;21.450;2024-02-15T05:56:42;11;10;7
84282;PMS7003;74440;52.600;21.450;2024-02-15T06:00:43;13;11;8
84282;PMS7003;74440;52.600;21.450;2024-02-15T06:04:45;12;11;6
84282;PMS7003;74440;52.600;21.450;2024-02-15T06:08:47;8;7;5
84282;PMS7003;74440;52.600;21.450;2024-02-15T06:12:49;13;11;8
84282;PMS7003;74440;52.600;21.450;2024-02-15T06:16:51;13;9;7
84282;PMS7003;74440;52.600;21.450;2024-02-15T06:20:55;13;13;8
84282;PMS7003;74440;52.600;21.450;2024-02-15T06:25:08;11;10;7
84282;PMS7003;74440;52.600;21.450;2024-02-15T06:29:10;13;11;7
84282;PMS7003;74440;52.600;21.450;2024-02-15T06:33:23;11;11;7
84282;PMS7003;74440;52.600;21.450;2024-02-15T06:37:37;15;10;7
84282;PMS7003;74440;52.600;21.450;2024-02-15T06:41:50;12;11;8
84282;PMS7003;74440;52.600;21.450;2024-02-15T06:45:53;12;8;6
84282;PMS7003;74440;52.600;21.450;2024-02-15T06:49:55;10;10;9
84282;PMS7003;74440;52.600;21.450;2024-02-15T06:53:57;8;7;5
84282;PMS7003;74440;52.600;21.450;2024-02-15T06:57:58;17;13;9
84282;PMS7003;74440;52.600;21.450;2024-02-15T07:02:00;14;11;8
84282;PMS7003;74440;52.600;21.450;2024-02-15T07:06:11;12;10;8
84282;PMS7003;74440;52.600;21.450;2024-02-15T07:10:15;14;9;5
84282;PMS7003;74440;52.600;21.450;2024-02-15T07:14:19;14;11;8
84282;PMS7003;74440;52.600;21.450;2024-02-15T07:18:21;14;14;9
84282;PMS7003;74440;52.600;21.450;2024-02-15T07:22:23;13;10;8
84282;PMS7003;74440;52.600;21.450;2024-02-15T07:26:24;11;9;7
84282;PMS7003;74440;52.600;21.450;2024-02-15T07:30:26;7;7;7
84282;PMS7003;74440;52.600;21.450;2024-02-15T07:34:27;15;12;7
84282;PMS7003;74440;52.600;21.450;2024-02-15T07:38:29;11;10;7
84282;PMS7003;74440;52.600;21.450;2024-02-15T07:42:41;13;12;7
84282;PMS7003;74440;52.600;21.450;2024-02-15T07:46:42;15;13;8
84282;PMS7003;74440;52.600;21.450;2024-02-15T07:50:44;10;8;7
84282;PMS7003;74440;52.600;21.450;2024-02-15T07:54:45;11;10;7
84282;PMS7003;74440;52.600;21.450;2024-02-15T07:58:48;15;11;8
84282;PMS7003;74440;52.600;21.450;2024-02-15T08:02:52;12;11;7
84282;PMS7003;74440;52.600;21.450;2024-02-15T08:06:54;15;15;10
84282;PMS7003;74440;52.600;21.450;2024-02-15T08:10:56;14;13;9
84282;PMS7003;74440;52.600;21.450;2024-02-15T08:14:57;17;15;10
84282;PMS7003;74440;52.600;21.450;2024-02-15T08:19:10;18;13;8
84282;PMS7003;74440;52.600;21.450;2024-02-15T08:23:11;18;16;11
84282;PMS7003;74440;52.600;21.450;2024-02-15T08:27:13;25;20;14
84282;PMS7003;74440;52.600;21.450;2024-02-15T08:31:17;14;13;9
84282;PMS7003;74440;52.600;21.450;2024-02-15T08:35:20;19;14;8
84282;PMS7003;74440;52.600;21.450;2024-02-15T08:39:21;18;17;13
84282;PMS7003;74440;52.600;21.450;2024-02-15T08:43:23;20;17;12
84282;PMS7003;74440;52.600;21.450;2024-02-15T08:47:24;20;17;12
84282;PMS7003;74440;52.600;21.450;2024-02-15T08:51:26;25;21;13
84282;PMS7003;74440;52.600;21.450;2024-02-15T08:55:39;23;20;13
84282;PMS7003;74440;52.600;21.450;2024-02-15T08:59:41;21;17;12
84282;PMS7003;74440;52.600;21.450;2024-02-15T09:03:43;19;17;12
84282;PMS7003;74440;52.600;21.450;2024-02-15T09:07:45;20;19;13
84282;PMS7003;74440;52.600;21.450;2024-02-15T09:11:52;21;21;15
84282;PMS7003;74440;52.600;21.450;2024-02-15T09:15:54;24;22;16
84282;PMS7003;74440;52.600;21.450;2024-02-15T09:19:55;25;22;14
84282;PMS7003;74440;52.600;21.450;2024-02-15T09:23:58;27;25;16
84282;PMS7003;74440;52.600;21.450;2024-02-15T09:27:59;25;22;14
84282;PMS7003;74440;52.600;21.450;2024-02-15T09:32:10;22;18;13
84282;PMS7003;74440;52.600;21.450;2024-02-15T09:36:12;25;20;13
84282;PMS7003;74440;52.600;21.450;2024-02-15T09:40:16;23;19;13
84282;PMS7003;74440;52.600;21.450;2024-02-15T09:44:19;19;17;13
84282;PMS7003;74440;52.600;21.450;2024-02-15T09:48:23;26;22;15
84282;PMS7003;74440;52.600;21.450;2024-02-15T09:56:53;26;22;15
84282;PMS7003;74440;52.600;21.450;2024-02-15T10:00:55;24;21;14
84282;PMS7003;74440;52.600;21.450;2024-02-15T10:04:56;29;23;14
84282;PMS7003;74440;52.600;21.450;2024-02-15T10:13:15;22;19;15
84282;PMS7003;74440;52.600;21.450;2024-02-15T10:17:25;21;18;13
84282;PMS7003;74440;52.600;21.450;2024-02-15T10:21:27;32;26;16
84282;PMS7003;74440;52.600;21.450;2024-02-15T10:25:36;22;21;14
84282;PMS7003;74440;52.600;21.450;2024-02-15T10:29:41;29;26;16
84282;PMS7003;74440;52.600;21.450;2024-02-15T10:33:44;28;22;16
84282;PMS7003;74440;52.600;21.450;2024-02-15T10:37:47;30;26;14
84282;PMS7003;74440;52.600;21.450;2024-02-15T10:41:51;24;20;14
84282;PMS7003;74440;52.600;21.450;2024-02-15T10:45:55;27;24;16
84282;PMS7003;74440;52.600;21.450;2024-02-15T10:49:57;29;26;17
84282;PMS7003;74440;52.600;21.450;2024-02-15T10:54:02;26;23;14
84282;PMS7003;74440;52.600;21.450;2024-02-15T10:58:06;28;22;16
84282;PMS7003;74440;52.600;21.450;2024-02-15T11:06:24;30;28;17
84282;PMS7003;74440;52.600;21.450;2024-02-15T11:10:30;28;23;16
84282;PMS7003;74440;52.600;21.450;2024-02-15T11:14:32;32;28;18
84282;PMS7003;74440;52.600;21.450;2024-02-15T11:22:57;21;19;10
84282;PMS7003;74440;52.600;21.450;2024-02-15T11:26:59;31;25;16
84282;PMS7003;74440;52.600;21.450;2024-02-15T11:31:08;35;26;16
84282;PMS7003;74440;52.600;21.450;2024-02-15T11:35:26;29;24;17
84282;PMS7003;74440;52.600;21.450;2024-02-15T11:43:46;27;27;19
84282;PMS7003;74440;52.600;21.450;2024-02-15T11:47:56;34;31;18
84282;PMS7003;74440;52.600;21.450;2024-02-15T11:52:06;30;27;16
84282;PMS7003;74440;52.600;21.450;2024-02-15T11:56:11;27;26;18
84282;PMS7003;74440;52.600;21.450;2024-02-15T12:00:31;35;30;20
84282;PMS7003;74440;52.600;21.450;2024-02-15T12:04:44;26;24;15
84282;PMS7003;74440;52.600;21.450;2024-02-15T12:08:58;22;20;13
84282;PMS7003;74440;52.600;21.450;2024-02-15T12:13:16;29;26;17
84282;PMS7003;74440;52.600;21.450;2024-02-15T12:17:32;27;23;16
84282;PMS7003;74440;52.600;21.450;2024-02-15T12:21:48;28;25;17
84282;PMS7003;74440;52.600;21.450;2024-02-15T12:25:51;30;26;17
84282;PMS7003;74440;52.600;21.450;2024-02-15T12:29:54;29;25;19
84282;PMS7003;74440;52.600;21.450;2024-02-15T12:34:02;29;24;17
84282;PMS7003;74440;52.600;21.450;2024-02-15T12:38:09;30;28;18
84282;PMS7003;74440;52.600;21.450;2024-02-15T12:42:17;28;25;16
84282;PMS7003;74440;52.600;21.450;2024-02-15T12:46:20;25;23;15
84282;PMS7003;74440;52.600;21.450;2024-02-15T12:50:23;27;22;15
84282;PMS7003;74440;52.600;21.450;2024-02-15T12:54:28;31;28;18
84282;PMS7003;74440;52.600;21.450;2024-02-15T12:58:30;20;18;14
84282;PMS7003;74440;52.600;21.450;2024-02-15T13:06:23;27;23;15
84282;PMS7003;74440;52.600;21.450;2024-02-15T13:10:25;27;24;16
84282;PMS7003;74440;52.600;21.450;2024-02-15T13:14:28;33;28;17
84282;PMS7003;74440;52.600;21.450;2024-02-15T13:18:30;25;22;16
84282;PMS7003;74440;52.600;21.450;2024-02-15T13:22:31;34;28;19
84282;PMS7003;74440;52.600;21.450;2024-02-15T13:26:35;33;29;18
84282;PMS7003;74440;52.600;21.450;2024-02-15T13:30:37;28;25;16
84282;PMS7003;74440;52.600;21.450;2024-02-15T13:34:40;27;24;16
84282;PMS7003;74440;52.600;21.450;2024-02-15T13:38:52;27;25;16
84282;PMS7003;74440;52.600;21.450;2024-02-15T13:42:54;20;16;8
84282;PMS7003;74440;52.600;21.450;2024-02-15T13:46:59;28;27;18
84282;PMS7003;74440;52.600;21.450;2024-02-15T13:51:00;33;27;17
84282;PMS7003;74440;52.600;21.450;2024-02-15T13:55:02;43;33;22
84282;PMS7003;74440;52.600;21.450;2024-02-15T13:59:06;38;31;22
84282;PMS7003;74440;52.600;21.450;2024-02-15T14:03:10;40;29;19
84282;PMS7003;74440;52.600;21.450;2024-02-15T14:07:12;33;28;18
84282;PMS7003;74440;52.600;21.450;2024-02-15T14:11:14;36;26;15
84282;PMS7003;74440;52.600;21.450;2024-02-15T14:15:26;34;27;19
84282;PMS7003;74440;52.600;21.450;2024-02-15T14:19:28;33;28;19
84282;PMS7003;74440;52.600;21.450;2024-02-15T14:23:29;28;25;19
84282;PMS7003;74440;52.600;21.450;2024-02-15T14:27:31;33;30;20
84282;PMS7003;74440;52.600;21.450;2024-02-15T14:31:33;32;29;19
84282;PMS7003;74440;52.600;21.450;2024-02-15T14:35:55;33;28;16
84282;PMS7003;74440;52.600;21.450;2024-02-15T14:39:57;26;24;16
84282;PMS7003;74440;52.600;21.450;2024-02-15T14:43:58;40;29;18
84282;PMS7003;74440;52.600;21.450;2024-02-15T14:48:00;29;24;15
84282;PMS7003;74440;52.600;21.450;2024-02-15T14:52:03;36;30;17
84282;PMS7003;74440;52.600;21.450;2024-02-15T14:56:05;30;28;17
84282;PMS7003;74440;52.600;21.450;2024-02-15T15:00:08;23;19;13
84282;PMS7003;74440;52.600;21.450;2024-02-15T15:04:12;28;25;19
84282;PMS7003;74440;52.600;21.450;2024-02-15T15:08:14;31;29;20
84282;PMS7003;74440;52.600;21.450;2024-02-15T15:12:27;27;24;17
84282;PMS7003;74440;52.600;21.450;2024-02-15T15:16:40;36;31;19
84282;PMS7003;74440;52.600;21.450;2024-02-15T15:20:41;29;26;15
84282;PMS7003;74440;52.600;21.450;2024-02-15T15:24:43;35;29;19
84282;PMS7003;74440;52.600;21.450;2024-02-15T15:28:44;27;22;16
84282;PMS7003;74440;52.600;21.450;2024-02-15T15:32:56;31;25;17
84282;PMS7003;74440;52.600;21.450;2024-02-15T15:36:58;26;25;17
84282;PMS7003;74440;52.600;21.450;2024-02-15T15:41:01;32;27;18
84282;PMS7003;74440;52.600;21.450;2024-02-15T15:45:04;30;27;19
84282;PMS7003;74440;52.600;21.450;2024-02-15T15:49:06;30;27;18
84282;PMS7003;74440;52.600;21.450;2024-02-15T15:53:08;32;29;19
84282;PMS7003;74440;52.600;21.450;2024-02-15T15:57:13;28;23;15
84282;PMS7003;74440;52.600;21.450;2024-02-15T16:01:15;27;26;14
84282;PMS7003;74440;52.600;21.450;2024-02-15T16:05:18;29;23;16
84282;PMS7003;74440;52.600;21.450;2024-02-15T16:09:27;28;25;18
84282;PMS7003;74440;52.600;21.450;2024-02-15T16:13:29;36;31;20
84282;PMS7003;74440;52.600;21.450;2024-02-15T16:17:30;37;29;19
84282;PMS7003;74440;52.600;21.450;2024-02-15T16:21:33;35;32;21
84282;PMS7003;74440;52.600;21.450;2024-02-15T16:25:34;38;33;20
84282;PMS7003;74440;52.600;21.450;2024-02-15T16:29:36;43;34;21
84282;PMS7003;74440;52.600;21.450;2024-02-15T16:33:37;29;25;18
84282;PMS7003;74440;52.600;21.450;2024-02-15T16:37:39;33;31;19
84282;PMS7003;74440;52.600;21.450;2024-02-15T16:41:46;35;32;21
84282;PMS7003;74440;52.600;21.450;2024-02-15T16:45:57;43;35;23
84282;PMS7003;74440;52.600;21.450;2024-02-15T16:49:59;43;36;23
84282;PMS7003;74440;52.600;21.450;2024-02-15T16:54:01;35;31;20
84282;PMS7003;74440;52.600;21.450;2024-02-15T16:58:08;36;32;19
84282;PMS7003;74440;52.600;21.450;2024-02-15T17:02:11;41;35;23
84282;PMS7003;74440;52.600;21.450;2024-02-15T17:06:28;48;32;22
84282;PMS7003;74440;52.600;21.450;2024-02-15T17:10:30;43;36;23
84282;PMS7003;74440;52.600;21.450;2024-02-15T17:14:31;35;31;20
84282;PMS7003;74440;52.600;21.450;2024-02-15T17:18:33;40;34;23
84282;PMS7003;74440;52.600;21.450;2024-02-15T17:22:36;40;33;20
84282;PMS7003;74440;52.600;21.450;2024-02-15T17:26:41;35;30;21
84282;PMS7003;74440;52.600;21.450;2024-02-15T17:30:45;38;33;21
84282;PMS7003;74440;52.600;21.450;2024-02-15T17:34:47;44;36;24
84282;PMS7003;74440;52.600;21.450;2024-02-15T17:38:49;37;31;21
84282;PMS7003;74440;52.600;21.450;2024-02-15T17:43:00;48;38;24
84282;PMS7003;74440;52.600;21.450;2024-02-15T17:47:03;42;34;22
84282;PMS7003;74440;52.600;21.450;2024-02-15T17:51:08;35;29;18
84282;PMS7003;74440;52.600;21.450;2024-02-15T17:55:09;32;27;17
84282;PMS7003;74440;52.600;21.450;2024-02-15T17:59:11;26;24;15
84282;PMS7003;74440;52.600;21.450;2024-02-15T18:03:13;43;35;22
84282;PMS7003;74440;52.600;21.450;2024-02-15T18:07:14;41;32;19
84282;PMS7003;74440;52.600;21.450;2024-02-15T18:11:19;41;35;23
84282;PMS7003;74440;52.600;21.450;2024-02-15T18:15:20;36;31;21
84282;PMS7003;74440;52.600;21.450;2024-02-15T18:19:29;39;33;23
84282;PMS7003;74440;52.600;21.450;2024-02-15T18:23:31;44;36;23
84282;PMS7003;74440;52.600;21.450;2024-02-15T18:27:34;44;36;22
84282;PMS7003;74440;52.600;21.450;2024-02-15T18:31:38;46;35;24
84282;PMS7003;74440;52.600;21.450;2024-02-15T18:35:42;40;36;22
84282;PMS7003;74440;52.600;21.450;2024-02-15T18:40:01;42;32;20
84282;PMS7003;74440;52.600;21.450;2024-02-15T18:44:03;39;34;21
84282;PMS7003;74440;52.600;21.450;2024-02-15T18:48:04;45;38;23
84282;PMS7003;74440;52.600;21.450;2024-02-15T18:52:10;37;32;21
84282;PMS7003;74440;52.600;21.450;2024-02-15T18:56:14;29;27;18
84282;PMS7003;74440;52.600;21.450;2024-02-15T19:00:32;42;35;24
84282;PMS7003;74440;52.600;21.450;2024-02-15T19:04:39;42;36;24
84282;PMS7003;74440;52.600;21.450;2024-02-15T19:08:40;39;33;20
84282;PMS7003;74440;52.600;21.450;2024-02-15T19:12:43;38;34;22
84282;PMS7003;74440;52.600;21.450;2024-02-15T19:16:44;38;34;24
84282;PMS7003;74440;52.600;21.450;2024-02-15T19:20:46;44;35;22
84282;PMS7003;74440;52.600;21.450;2024-02-15T19:24:48;49;37;24
84282;PMS7003;74440;52.600;21.450;2024-02-15T19:28:51;39;34;22
84282;PMS7003;74440;52.600;21.450;2024-02-15T19:32:53;39;32;20
84282;PMS7003;74440;52.600;21.450;2024-02-15T19:37:03;39;34;21
84282;PMS7003;74440;52.600;21.450;2024-02-15T19:41:14;40;34;22
84282;PMS7003;74440;52.600;21.450;2024-02-15T19:45:19;36;33;21
84282;PMS7003;74440;52.600;21.450;2024-02-15T19:49:21;32;29;20
84282;PMS7003;74440;52.600;21.450;2024-02-15T19:53:22;42;31;20
84282;PMS7003;74440;52.600;21.450;2024-02-15T19:57:34;28;25;15
84282;PMS7003;74440;52.600;21.450;2024-02-15T20:01:35;37;30;20
84282;PMS7003;74440;52.600;21.450;2024-02-15T20:05:37;46;36;23
84282;PMS7003;74440;52.600;21.450;2024-02-15T20:09:39;31;27;19
84282;PMS7003;74440;52.600;21.450;2024-02-15T20:13:40;39;32;23
84282;PMS7003;74440;52.600;21.450;2024-02-15T20:17:48;40;35;22
84282;PMS7003;74440;52.600;21.450;2024-02-15T20:21:49;49;36;23
84282;PMS7003;74440;52.600;21.450;2024-02-15T20:25:52;38;34;22
84282;PMS7003;74440;52.600;21.450;2024-02-15T20:29:53;42;38;24
84282;PMS7003;74440;52.600;21.450;2024-02-15T20:34:04;37;30;21
84282;PMS7003;74440;52.600;21.450;2024-02-15T20:38:06;38;34;22
84282;PMS7003;74440;52.600;21.450;2024-02-15T20:42:07;41;35;23
84282;PMS7003;74440;52.600;21.450;2024-02-15T20:46:09;37;33;22
84282;PMS7003;74440;52.600;21.450;2024-02-15T20:50:14;43;35;21
84282;PMS7003;74440;52.600;21.450;2024-02-15T20:54:17;33;28;15
84282;PMS7003;74440;52.600;21.450;2024-02-15T20:58:19;36;32;18
84282;PMS7003;74440;52.600;21.450;2024-02-15T21:02:25;39;33;22
84282;PMS7003;74440;52.600;21.450;2024-02-15T21:06:32;38;32;22
84282;PMS7003;74440;52.600;21.450;2024-02-15T21:10:37;53;41;26
84282;PMS7003;74440;52.600;21.450;2024-02-15T21:14:41;38;32;21
84282;PMS7003;74440;52.600;21.450;2024-02-15T21:18:43;40;34;22
84282;PMS7003;74440;52.600;21.450;2024-02-15T21:22:50;39;34;23
84282;PMS7003;74440;52.600;21.450;2024-02-15T21:26:58;39;36;24
84282;PMS7003;74440;52.600;21.450;2024-02-15T21:31:05;40;36;23
84282;PMS7003;74440;52.600;21.450;2024-02-15T21:35:17;36;33;22
84282;PMS7003;74440;52.600;21.450;2024-02-15T21:39:20;41;34;21
84282;PMS7003;74440;52.600;21.450;2024-02-15T21:43:27;38;33;23
84282;PMS7003;74440;52.600;21.450;2024-02-15T21:47:28;43;31;21
84282;PMS7003;74440;52.600;21.450;2024-02-15T21:51:36;19;16;9
84282;PMS7003;74440;52.600;21.450;2024-02-15T21:55:38;33;29;19
84282;PMS7003;74440;52.600;21.450;2024-02-15T21:59:39;43;36;23
84282;PMS7003;74440;52.600;21.450;2024-02-15T22:03:41;42;33;21
84282;PMS7003;74440;52.600;21.450;2024-02-15T22:07:43;42;36;22
84282;PMS7003;74440;52.600;21.450;2024-02-15T22:11:44;39;35;21
84282;PMS7003;74440;52.600;21.450;2024-02-15T22:15:46;39;32;19
84282;PMS7003;74440;52.600;21.450;2024-02-15T22:19:49;38;30;20
84282;PMS7003;74440;52.600;21.450;2024-02-15T22:23:54;42;33;21
84282;PMS7003;74440;52.600;21.450;2024-02-15T22:28:06;42;34;23
84282;PMS7003;74440;52.600;21.450;2024-02-15T22:32:07;41;33;22
84282;PMS7003;74440;52.600;21.450;2024-02-15T22:40:23;39;31;20
84282;PMS7003;74440;52.600;21.450;2024-02-15T22:44:25;39;34;22
84282;PMS7003;74440;52.600;21.450;2024-02-15T22:48:41;37;32;22
84282;PMS7003;74440;52.600;21.450;2024-02-15T22:52:43;44;34;21
84282;PMS7003;74440;52.600;21.450;2024-02-15T22:56:45;41;34;23
84282;PMS7003;74440;52.600;21.450;2024-02-15T23:00:46;34;30;20
84282;PMS7003;74440;52.600;21.450;2024-02-15T23:04:49;38;30;20
84282;PMS7003;74440;52.600;21.450;2024-02-15T23:09:09;45;33;20
84282;PMS7003;74440;52.600;21.450;2024-02-15T23:13:10;33;28;19
84282;PMS7003;74440;52.600;21.450;2024-02-15T23:17:14;37;33;22
84282;PMS7003;74440;52.600;21.450;2024-02-15T23:21:15;36;34;22
84282;PMS7003;74440;52.600;21.450;2024-02-15T23:25:17;35;30;19
84282;PMS7003;74440;52.600;21.450;2024-02-15T23:29:19;37;33;20
84282;PMS7003;74440;52.600;21.450;2024-02-15T23:33:20;29;27;18
84282;PMS7003;74440;52.600;21.450;2024-02-15T23:37:22;37;30;18
84282;PMS7003;74440;52.600;21.450;2024-02-15T23:41:35;29;26;17
84282;PMS7003;74440;52.600;21.450;2024-02-15T23:45:38;33;30;19
84282;PMS7003;74440;52.600;21.450;2024-02-15T23:49:39;34;29;20
84282;PMS7003;74440;52.600;21.450;2024-02-15T23:53:41;33;29;18
84282;PMS7003;74440;52.600;21.450;2024-02-15T23:57:43;31;26;18
